CheckWX is a tool to help pilots better visualize weather data.  It is not intended as a substitute for an official pre-flight weather briefing.

15:43:19 UTC

KPTB METAR
Dinwiddie County Airport
Petersburg, Virginia, USA
Current

8 mins ago

KPTB 201535Z AUTO 21005KT 10SM CLR 29/20 A2996 RMK AO2 T02850195
Observed
May-20 @ 15:35 UTC
Wind
  • 210° at 5 KTS
Visibility
10 SM
Flight Rules
VFR
Cloud Levels
  • Clear skies
Temperature
29°C / 84°F
Dewpoint
20°C / 68°F
Heat Index
31°C / 87°F
Humidity
58%
Altimeter
29.96" Hg
Pressure
1014.52 hPa
Previous

28 mins ago

KPTB 201515Z AUTO 22011G16KT 10SM CLR 28/20 A2996 RMK AO2 T02840198
Observed
May-20 @ 15:15 UTC
Wind
  • 220° at 11 KTS
  • Gusting to 16 KTS
Visibility
10 SM
Flight Rules
VFR
Cloud Levels
  • Clear skies
Temperature
28°C / 82°F
Dewpoint
20°C / 68°F
Heat Index
29°C / 85°F
Humidity
62%
Altimeter
29.96" Hg
Pressure
1014.52 hPa
Previous

48 mins ago

KPTB 201455Z AUTO 23011G16KT 10SM CLR 28/20 A2997 RMK AO2 6//// T02780195
Observed
May-20 @ 14:55 UTC
Wind
  • 230° at 11 KTS
  • Gusting to 16 KTS
Visibility
10 SM
Flight Rules
VFR
Cloud Levels
  • Clear skies
Temperature
28°C / 82°F
Dewpoint
20°C / 68°F
Heat Index
29°C / 85°F
Humidity
62%
Altimeter
29.97" Hg
Pressure
1014.92 hPa